createdAt,value
2024-02-11T00:00:39.610Z,14.40
2024-02-11T00:03:06.626Z,15.43
2024-02-11T00:05:33.233Z,14.45
2024-02-11T00:07:59.863Z,15.55
2024-02-11T00:10:26.541Z,14.77
2024-02-11T00:12:53.148Z,14.80
2024-02-11T00:15:19.982Z,14.82
2024-02-11T00:17:47.861Z,14.68
2024-02-11T00:20:17.552Z,14.82
2024-02-11T00:22:45.858Z,15.65
2024-02-11T00:25:13.341Z,14.38
2024-02-11T00:27:44.427Z,15.65
2024-02-11T00:30:11.589Z,15.55
2024-02-11T00:32:41.154Z,14.50
2024-02-11T00:35:09.566Z,14.02
2024-02-11T00:37:36.365Z,14.43
2024-02-11T00:40:06.961Z,15.25
2024-02-11T00:42:36.060Z,13.88
2024-02-11T00:45:07.569Z,13.90
2024-02-11T00:47:35.640Z,14.02
2024-02-11T00:50:02.506Z,14.45
2024-02-11T00:52:29.214Z,14.02
2024-02-11T00:54:55.819Z,13.23
2024-02-11T00:57:22.682Z,12.98
2024-02-11T00:59:49.563Z,12.90
2024-02-11T01:02:16.172Z,12.68
2024-02-11T01:04:43.048Z,11.45
2024-02-11T01:07:11.375Z,11.65
2024-02-11T01:09:37.976Z,11.73
2024-02-11T01:12:05.020Z,11.43
2024-02-11T01:14:32.145Z,10.75
2024-02-11T01:16:59.206Z,12.07
2024-02-11T01:19:25.898Z,11.43
2024-02-11T01:21:55.110Z,11.88
2024-02-11T01:24:22.286Z,12.20
2024-02-11T01:26:50.063Z,11.60
2024-02-11T01:29:18.855Z,11.57
2024-02-11T01:31:46.095Z,11.50
2024-02-11T01:34:12.810Z,11.75
2024-02-11T01:36:39.554Z,12.40
2024-02-11T01:39:06.262Z,12.40
2024-02-11T01:41:33.047Z,10.88
2024-02-11T01:44:00.713Z,11.02
2024-02-11T01:46:27.763Z,11.68
2024-02-11T01:48:55.954Z,11.20
2024-02-11T01:51:22.720Z,11.13
2024-02-11T01:53:49.781Z,12.07
2024-02-11T01:56:21.854Z,10.55
2024-02-11T01:58:50.558Z,11.85
2024-02-11T02:01:22.364Z,12.35
2024-02-11T02:03:49.529Z,11.65
2024-02-11T02:06:19.646Z,12.20
2024-02-11T02:08:46.367Z,12.13
2024-02-11T02:11:13.085Z,11.27
2024-02-11T02:13:40.319Z,12.35
2024-02-11T02:16:08.908Z,13.07
2024-02-11T02:18:36.761Z,13.02
2024-02-11T02:21:05.906Z,13.65
2024-02-11T02:23:32.708Z,12.35
2024-02-11T02:26:02.541Z,13.18
2024-02-11T02:28:29.101Z,13.43
2024-02-11T02:30:55.745Z,12.18
2024-02-11T02:33:22.541Z,12.57
2024-02-11T02:35:49.201Z,12.35
2024-02-11T02:38:15.927Z,12.98
2024-02-11T02:40:42.722Z,12.02
2024-02-11T02:43:12.915Z,13.70
2024-02-11T02:45:40.290Z,12.68
2024-02-11T02:48:07.852Z,13.18
2024-02-11T02:50:37.774Z,12.93
2024-02-11T02:53:04.892Z,13.43
2024-02-11T02:55:31.607Z,13.23
2024-02-11T02:57:58.273Z,14.20
2024-02-11T03:00:25.168Z,13.25
2024-02-11T03:02:54.086Z,13.55
2024-02-11T03:05:23.417Z,13.70
2024-02-11T03:07:53.481Z,13.63
2024-02-11T03:10:22.337Z,13.20
2024-02-11T03:12:49.411Z,13.80
2024-02-11T03:15:17.434Z,14.18
2024-02-11T03:17:44.879Z,14.48
2024-02-11T03:20:16.894Z,14.45
2024-02-11T03:22:44.869Z,14.85
2024-02-11T03:25:12.082Z,14.15
2024-02-11T03:27:42.821Z,14.73
2024-02-11T03:30:12.196Z,13.85
2024-02-11T03:32:39.181Z,15.07
2024-02-11T03:35:06.814Z,14.85
2024-02-11T03:37:35.392Z,15.20
2024-02-11T03:40:10.705Z,15.48
2024-02-11T03:42:37.700Z,16.42
2024-02-11T03:45:08.933Z,14.60
2024-02-11T03:47:35.856Z,16.02
2024-02-11T03:50:04.014Z,15.32
2024-02-11T03:52:30.695Z,16.55
2024-02-11T03:54:57.604Z,15.88
2024-02-11T03:57:24.212Z,17.52
2024-02-11T03:59:50.782Z,16.67
2024-02-11T04:02:19.589Z,16.50
2024-02-11T04:04:47.122Z,16.55
2024-02-11T04:07:14.716Z,17.00
2024-02-11T04:09:41.432Z,16.25
2024-02-11T04:12:11.728Z,17.23
2024-02-11T04:14:38.725Z,16.23
2024-02-11T04:17:14.109Z,16.27
2024-02-11T04:19:41.318Z,16.60
2024-02-11T04:22:08.772Z,15.75
2024-02-11T04:24:35.495Z,17.48
2024-02-11T04:27:04.099Z,18.05
2024-02-11T04:29:30.749Z,16.60
2024-02-11T04:31:58.246Z,17.80
2024-02-11T04:34:25.077Z,17.27
2024-02-11T04:36:51.817Z,17.40
2024-02-11T04:39:20.097Z,18.27
2024-02-11T04:41:47.875Z,17.08
2024-02-11T04:44:16.602Z,17.30
2024-02-11T04:46:44.030Z,17.02
2024-02-11T04:49:11.657Z,16.83
2024-02-11T04:51:40.352Z,17.45
2024-02-11T04:54:07.017Z,17.95
2024-02-11T04:56:33.615Z,16.88
2024-02-11T04:59:03.239Z,17.08
2024-02-11T05:01:30.134Z,16.58
2024-02-11T05:03:56.924Z,16.77
2024-02-11T05:06:25.429Z,15.85
2024-02-11T05:08:52.125Z,17.98
2024-02-11T05:11:18.902Z,17.92
2024-02-11T05:13:46.369Z,18.65
2024-02-11T05:16:16.223Z,17.95
2024-02-11T05:18:45.967Z,16.48
2024-02-11T05:21:12.627Z,17.27
2024-02-11T05:23:39.752Z,18.52
2024-02-11T05:26:10.921Z,17.50
2024-02-11T05:28:37.837Z,17.15
2024-02-11T05:31:05.217Z,18.00
2024-02-11T05:33:32.871Z,18.35
2024-02-11T05:35:59.906Z,19.52
2024-02-11T05:38:26.740Z,19.45
2024-02-11T05:40:58.172Z,18.90
2024-02-11T05:43:25.342Z,19.50
2024-02-11T05:45:52.023Z,19.33
2024-02-11T05:48:19.701Z,19.90
2024-02-11T05:50:49.839Z,20.05
2024-02-11T05:53:17.376Z,20.35
2024-02-11T05:55:44.308Z,19.55
2024-02-11T05:58:10.990Z,20.75
2024-02-11T06:00:38.428Z,19.88
2024-02-11T06:03:05.621Z,19.70
2024-02-11T06:05:32.887Z,19.92
2024-02-11T06:08:03.782Z,20.00
2024-02-11T06:10:31.956Z,20.00
2024-02-11T06:12:58.968Z,20.35
2024-02-11T06:15:28.177Z,19.38
2024-02-11T06:17:55.238Z,19.48
2024-02-11T06:20:22.873Z,19.73
2024-02-11T06:22:56.343Z,20.23
2024-02-11T06:25:26.449Z,20.17
2024-02-11T06:27:54.213Z,21.58
2024-02-11T06:30:22.016Z,19.77
2024-02-11T06:32:57.241Z,14.43
2024-02-11T06:35:25.567Z,9.45
2024-02-11T06:37:52.621Z,6.38
2024-02-11T06:40:29.110Z,4.93
2024-02-11T06:42:56.349Z,5.03
2024-02-11T06:45:23.884Z,5.30
2024-02-11T06:47:51.956Z,5.32
2024-02-11T06:50:20.097Z,5.20
2024-02-11T06:52:50.787Z,5.85
2024-02-11T06:55:20.036Z,6.25
2024-02-11T06:57:47.102Z,6.47
2024-02-11T07:00:15.985Z,7.78
2024-02-11T07:02:42.766Z,9.13
2024-02-11T07:05:12.619Z,11.43
2024-02-11T07:07:44.056Z,11.85
2024-02-11T07:10:11.260Z,12.07
2024-02-11T07:12:38.199Z,12.70
2024-02-11T07:15:07.129Z,13.63
2024-02-11T07:17:34.517Z,13.75
2024-02-11T07:20:01.580Z,13.40
2024-02-11T07:22:28.353Z,13.38
2024-02-11T07:24:56.540Z,12.85
2024-02-11T07:27:25.363Z,13.30
2024-02-11T07:29:52.131Z,13.68
2024-02-11T07:32:18.866Z,12.73
2024-02-11T07:34:46.832Z,13.68
2024-02-11T07:37:13.756Z,13.18
2024-02-11T07:39:40.431Z,14.13
2024-02-11T07:42:07.776Z,13.50
2024-02-11T07:44:34.429Z,13.02
2024-02-11T07:47:01.160Z,13.90
2024-02-11T07:49:27.922Z,13.25
2024-02-11T07:51:56.884Z,13.43
2024-02-11T07:54:25.329Z,13.80
2024-02-11T07:56:52.542Z,13.80
2024-02-11T07:59:20.276Z,14.85
2024-02-11T08:01:47.170Z,13.73
2024-02-11T08:04:17.506Z,14.15
2024-02-11T08:06:48.002Z,13.68
2024-02-11T08:09:15.331Z,13.25
2024-02-11T08:11:42.222Z,12.65
2024-02-11T08:14:09.295Z,11.30
2024-02-11T08:16:36.046Z,11.73
2024-02-11T08:19:04.668Z,11.07
2024-02-11T08:21:32.348Z,12.65
2024-02-11T08:23:59.113Z,12.73
2024-02-11T08:26:26.166Z,11.88
2024-02-11T08:28:53.040Z,12.52
2024-02-11T08:31:20.492Z,12.55
2024-02-11T08:33:48.651Z,11.77
2024-02-11T08:36:15.841Z,12.00
2024-02-11T08:38:42.698Z,11.30
2024-02-11T08:41:11.356Z,11.90
2024-02-11T08:43:39.158Z,11.90
2024-02-11T08:46:06.367Z,12.75
2024-02-11T08:48:34.144Z,12.32
2024-02-11T08:51:02.684Z,12.73
2024-02-11T08:53:31.461Z,13.40
2024-02-11T08:55:59.523Z,13.40
2024-02-11T08:58:26.687Z,14.45
2024-02-11T09:00:53.679Z,13.38
2024-02-11T09:03:20.631Z,13.18
2024-02-11T09:05:48.870Z,13.68
2024-02-11T09:08:17.338Z,15.18
2024-02-11T09:10:45.725Z,15.13
2024-02-11T09:13:12.617Z,15.27
2024-02-11T09:15:39.814Z,15.57
2024-02-11T09:18:11.531Z,16.60
2024-02-11T09:20:38.535Z,15.52
2024-02-11T09:23:05.958Z,16.23
2024-02-11T09:25:33.844Z,17.40
2024-02-11T09:28:01.204Z,15.38
2024-02-11T09:30:28.206Z,16.05
2024-02-11T09:32:55.399Z,16.00
2024-02-11T09:35:24.178Z,15.75
2024-02-11T09:37:52.549Z,16.58
2024-02-11T09:40:20.053Z,16.67
2024-02-11T09:42:47.809Z,16.25
2024-02-11T09:45:19.168Z,16.77
2024-02-11T09:47:50.598Z,15.52
2024-02-11T09:50:19.422Z,16.08
2024-02-11T09:52:47.849Z,15.68
2024-02-11T09:55:20.852Z,15.50
2024-02-11T09:57:47.952Z,16.75
2024-02-11T10:00:15.845Z,15.63
2024-02-11T10:02:45.529Z,15.50
2024-02-11T10:05:16.379Z,16.65
2024-02-11T10:07:46.753Z,16.38
2024-02-11T10:10:16.586Z,16.65
2024-02-11T10:12:44.572Z,15.68
2024-02-11T10:15:13.856Z,15.73
2024-02-11T10:17:42.808Z,15.98
2024-02-11T10:20:11.928Z,16.17
2024-02-11T10:22:40.369Z,16.60
2024-02-11T10:25:10.321Z,16.45
2024-02-11T10:27:40.011Z,17.35
2024-02-11T10:30:10.787Z,16.55
2024-02-11T10:32:41.172Z,16.65
2024-02-11T10:35:08.927Z,18.13
2024-02-11T10:37:52.487Z,17.58
2024-02-11T10:40:21.532Z,18.42
2024-02-11T10:42:51.400Z,17.05
2024-02-11T10:45:18.393Z,18.08
2024-02-11T10:47:45.650Z,17.35
2024-02-11T10:50:12.467Z,19.27
2024-02-11T10:52:46.118Z,19.77
2024-02-11T10:55:15.035Z,19.48
2024-02-11T10:57:51.081Z,17.77
2024-02-11T11:00:21.779Z,17.70
2024-02-11T11:02:53.299Z,18.25
2024-02-11T11:05:23.035Z,18.38
2024-02-11T11:07:53.468Z,16.20
2024-02-11T11:10:20.330Z,15.93
2024-02-11T11:12:51.318Z,16.40
2024-02-11T11:15:35.232Z,14.48
2024-02-11T11:18:03.509Z,15.20
2024-02-11T11:20:38.482Z,15.75
2024-02-11T11:23:07.407Z,15.23
2024-02-11T11:25:35.416Z,16.02
2024-02-11T11:28:11.037Z,15.50
2024-02-11T11:30:37.614Z,17.55
2024-02-11T11:33:05.532Z,15.95
2024-02-11T11:35:32.472Z,17.65
2024-02-11T11:38:02.100Z,17.70
2024-02-11T11:40:32.991Z,19.42
2024-02-11T11:43:00.906Z,18.75
2024-02-11T11:45:29.856Z,18.02
2024-02-11T11:47:58.361Z,18.00
2024-02-11T11:50:25.252Z,18.40
2024-02-11T11:53:01.618Z,18.40
2024-02-11T11:55:28.734Z,17.15
2024-02-11T11:58:02.330Z,19.02
2024-02-11T12:00:29.113Z,17.85
2024-02-11T12:03:01.865Z,17.15
2024-02-11T12:05:30.746Z,16.83
2024-02-11T12:07:58.884Z,17.88
2024-02-11T12:10:25.586Z,16.77
2024-02-11T12:13:00.213Z,15.63
2024-02-11T12:15:27.033Z,14.98
2024-02-11T12:17:59.756Z,16.98
2024-02-11T12:20:28.866Z,15.32
2024-02-11T12:22:56.200Z,15.50
2024-02-11T12:25:24.291Z,15.98
2024-02-11T12:27:51.675Z,15.27
2024-02-11T12:30:27.588Z,15.45
2024-02-11T12:32:55.032Z,14.32
2024-02-11T12:35:31.827Z,13.38
2024-02-11T12:37:59.798Z,13.68
2024-02-11T12:40:27.245Z,14.02
2024-02-11T12:43:01.037Z,14.80
2024-02-11T12:45:29.540Z,14.20
2024-02-11T12:47:56.749Z,14.13
2024-02-11T12:50:25.442Z,13.98
2024-02-11T12:52:52.860Z,14.90
2024-02-11T12:55:20.475Z,14.40
2024-02-11T12:57:47.900Z,13.45
2024-02-11T13:00:16.383Z,14.07
2024-02-11T13:02:44.550Z,13.43
2024-02-11T13:05:16.724Z,14.00
2024-02-11T13:07:45.986Z,15.30
2024-02-11T13:10:12.620Z,12.95
2024-02-11T13:12:42.004Z,14.27
2024-02-11T13:15:11.918Z,13.45
2024-02-11T13:17:41.033Z,13.38
2024-02-11T13:20:10.143Z,12.88
2024-02-11T13:22:36.849Z,12.77
2024-02-11T13:25:07.448Z,12.82
2024-02-11T13:27:34.021Z,13.45
2024-02-11T13:30:00.976Z,12.57
2024-02-11T13:32:29.253Z,13.00
2024-02-11T13:34:56.113Z,12.50
2024-02-11T13:37:22.809Z,12.10
2024-02-11T13:39:50.005Z,12.38
2024-02-11T13:42:17.101Z,12.98
2024-02-11T13:44:45.491Z,12.68
2024-02-11T13:47:13.672Z,14.02
2024-02-11T13:49:40.803Z,13.43
2024-02-11T13:52:10.376Z,13.20
2024-02-11T13:54:37.467Z,13.35
2024-02-11T13:57:04.963Z,12.20
2024-02-11T13:59:32.522Z,12.45
2024-02-11T14:02:00.714Z,12.65
2024-02-11T14:04:30.097Z,12.65
2024-02-11T14:07:00.496Z,12.35
2024-02-11T14:09:28.406Z,11.50
2024-02-11T14:11:58.041Z,11.45
2024-02-11T14:14:26.278Z,11.88
2024-02-11T14:16:53.119Z,11.10
2024-02-11T14:19:23.258Z,11.35
2024-02-11T14:21:51.166Z,10.18
2024-02-11T14:24:18.508Z,10.88
2024-02-11T14:26:47.351Z,9.57
2024-02-11T14:29:17.340Z,10.32
2024-02-11T14:31:46.075Z,9.38
2024-02-11T14:34:14.241Z,9.65
2024-02-11T14:36:40.981Z,9.57
2024-02-11T14:39:10.790Z,9.82
2024-02-11T14:41:40.743Z,8.77
2024-02-11T14:44:12.690Z,8.65
2024-02-11T14:46:40.351Z,8.68
2024-02-11T14:49:10.375Z,8.52
2024-02-11T14:51:40.863Z,9.88
2024-02-11T14:54:08.010Z,9.90
2024-02-11T14:56:34.688Z,8.70
2024-02-11T14:59:02.415Z,9.20
2024-02-11T15:01:30.383Z,8.05
2024-02-11T15:03:59.637Z,9.77
2024-02-11T15:06:27.848Z,9.65
2024-02-11T15:08:55.976Z,12.10
2024-02-11T15:11:23.453Z,12.30
2024-02-11T15:13:53.672Z,12.50
2024-02-11T15:16:20.601Z,13.90
2024-02-11T15:18:50.244Z,13.23
2024-02-11T15:21:17.115Z,13.68
2024-02-11T15:23:44.470Z,12.77
2024-02-11T15:26:11.362Z,12.45
2024-02-11T15:28:38.133Z,13.25
2024-02-11T15:31:04.954Z,15.85
2024-02-11T15:33:31.879Z,13.77
2024-02-11T15:35:58.599Z,11.38
2024-02-11T15:38:27.243Z,11.07
2024-02-11T15:40:54.871Z,8.93
2024-02-11T15:43:21.648Z,7.97
2024-02-11T15:45:48.484Z,8.52
2024-02-11T15:48:18.753Z,6.68
2024-02-11T15:50:45.888Z,7.85
2024-02-11T15:53:13.025Z,7.53
2024-02-11T15:55:40.477Z,6.63
2024-02-11T15:58:07.568Z,6.63
2024-02-11T16:00:34.384Z,6.90
2024-02-11T16:03:01.436Z,8.50
2024-02-11T16:05:28.939Z,7.28
2024-02-11T16:07:55.889Z,7.05
2024-02-11T16:10:24.324Z,7.15
2024-02-11T16:12:50.920Z,7.75
2024-02-11T16:15:19.138Z,7.57
2024-02-11T16:17:45.866Z,6.55
2024-02-11T16:20:14.184Z,7.00
2024-02-11T16:22:41.040Z,6.07
2024-02-11T16:25:07.901Z,5.50
2024-02-11T16:27:34.592Z,5.28
2024-02-11T16:30:06.540Z,5.35
2024-02-11T16:32:33.716Z,5.00
2024-02-11T16:35:00.932Z,5.07
2024-02-11T16:37:30.388Z,5.85
2024-02-11T16:39:56.965Z,5.40
2024-02-11T16:42:23.622Z,5.47
2024-02-11T16:44:50.525Z,5.97
2024-02-11T16:47:22.469Z,6.03
2024-02-11T16:49:49.800Z,6.88
2024-02-11T16:52:16.995Z,6.35
2024-02-11T16:54:45.473Z,7.07
2024-02-11T16:57:12.001Z,6.88
2024-02-11T16:59:40.173Z,7.30
2024-02-11T17:02:07.311Z,6.88
2024-02-11T17:04:33.984Z,7.07
2024-02-11T17:07:00.631Z,6.65
2024-02-11T17:09:28.753Z,8.05
2024-02-11T17:11:56.278Z,6.78
2024-02-11T17:14:22.999Z,7.25
2024-02-11T17:16:49.794Z,6.28
2024-02-11T17:19:20.162Z,6.75
2024-02-11T17:21:47.233Z,6.97
2024-02-11T17:24:16.816Z,6.95
2024-02-11T17:26:44.426Z,8.38
2024-02-11T17:29:11.811Z,8.98
2024-02-11T17:31:47.569Z,8.88
2024-02-11T17:34:15.582Z,7.93
2024-02-11T17:36:45.583Z,8.00
2024-02-11T17:39:12.665Z,7.80
2024-02-11T17:41:45.450Z,8.15
2024-02-11T17:44:12.841Z,7.78
2024-02-11T17:46:40.449Z,8.63
2024-02-11T17:49:10.904Z,8.60
2024-02-11T17:51:39.475Z,9.50
2024-02-11T17:54:06.690Z,12.90
2024-02-11T17:56:35.005Z,12.00
2024-02-11T17:59:01.857Z,11.38
2024-02-11T18:01:28.639Z,10.90
2024-02-11T18:03:55.363Z,12.13
2024-02-11T18:06:23.150Z,11.55
2024-02-11T18:08:50.724Z,11.90
2024-02-11T18:11:17.453Z,12.45
2024-02-11T18:13:45.502Z,12.20
2024-02-11T18:16:13.155Z,12.30
2024-02-11T18:18:41.081Z,11.98
2024-02-11T18:21:08.485Z,12.13
2024-02-11T18:23:37.165Z,14.73
2024-02-11T18:26:09.456Z,12.55
2024-02-11T18:28:42.546Z,11.77
2024-02-11T18:31:12.043Z,10.93
2024-02-11T18:33:40.485Z,10.73
2024-02-11T18:36:08.042Z,10.15
2024-02-11T18:38:34.932Z,11.23
2024-02-11T18:41:05.139Z,10.48
2024-02-11T18:43:34.326Z,10.55
2024-02-11T18:46:03.193Z,10.50
2024-02-11T18:48:30.406Z,10.75
2024-02-11T18:50:57.164Z,10.52
2024-02-11T18:53:24.299Z,11.23
2024-02-11T18:55:51.206Z,10.25
2024-02-11T18:58:18.054Z,11.50
2024-02-11T19:00:45.799Z,10.38
2024-02-11T19:03:12.485Z,11.73
2024-02-11T19:05:40.809Z,11.45
2024-02-11T19:08:10.457Z,11.38
2024-02-11T19:10:37.859Z,12.73
2024-02-11T19:13:09.329Z,12.95
2024-02-11T19:15:36.251Z,11.88
2024-02-11T19:18:03.192Z,12.27
2024-02-11T19:20:32.160Z,12.05
2024-02-11T19:22:59.025Z,11.45
2024-02-11T19:25:26.087Z,12.82
2024-02-11T19:27:53.693Z,14.07
2024-02-11T19:30:20.489Z,15.52
2024-02-11T19:32:47.870Z,16.30
2024-02-11T19:35:15.659Z,17.05
2024-02-11T19:37:46.187Z,13.73
2024-02-11T19:40:13.390Z,13.98
2024-02-11T19:42:45.358Z,12.20
2024-02-11T19:45:13.310Z,12.50
2024-02-11T19:47:40.561Z,12.32
2024-02-11T19:50:09.439Z,12.50
2024-02-11T19:52:36.272Z,13.52
2024-02-11T19:55:03.960Z,13.45
2024-02-11T19:57:31.337Z,14.52
2024-02-11T20:00:01.587Z,15.57
2024-02-11T20:02:31.099Z,14.57
2024-02-11T20:04:58.137Z,14.63
2024-02-11T20:07:24.872Z,13.43
2024-02-11T20:09:51.501Z,13.02
2024-02-11T20:12:21.543Z,13.43
2024-02-11T20:14:48.461Z,12.55
2024-02-11T20:17:15.666Z,13.27
2024-02-11T20:19:42.468Z,12.05
2024-02-11T20:22:12.819Z,14.15
2024-02-11T20:24:41.042Z,13.70
2024-02-11T20:27:09.358Z,13.70
2024-02-11T20:29:40.121Z,13.88
2024-02-11T20:32:08.709Z,13.93
2024-02-11T20:34:39.268Z,12.82
2024-02-11T20:37:05.960Z,13.55
2024-02-11T20:39:32.656Z,12.73
2024-02-11T20:42:00.443Z,13.00
2024-02-11T20:44:27.804Z,11.55
2024-02-11T20:46:54.632Z,9.50
2024-02-11T20:49:22.410Z,9.60
2024-02-11T20:51:49.321Z,9.80
2024-02-11T20:54:15.980Z,8.35
2024-02-11T20:56:42.636Z,7.57
2024-02-11T20:59:11.006Z,7.32
2024-02-11T21:01:37.886Z,8.88
2024-02-11T21:04:09.237Z,9.15
2024-02-11T21:06:36.822Z,9.40
2024-02-11T21:09:03.691Z,9.18
2024-02-11T21:11:31.982Z,8.85
2024-02-11T21:13:58.886Z,9.18
2024-02-11T21:16:25.749Z,9.10
2024-02-11T21:18:52.639Z,10.77
2024-02-11T21:21:19.394Z,9.30
2024-02-11T21:23:46.370Z,10.07
2024-02-11T21:26:18.021Z,11.05
2024-02-11T21:29:01.076Z,11.43
2024-02-11T21:31:28.850Z,12.50
2024-02-11T21:33:58.312Z,11.85
2024-02-11T21:36:26.486Z,9.70
2024-02-11T21:38:53.617Z,9.43
2024-02-11T21:41:20.278Z,9.27
2024-02-11T21:43:47.487Z,9.25
2024-02-11T21:46:16.596Z,8.55
2024-02-11T21:48:44.725Z,8.93
2024-02-11T21:51:11.599Z,6.85
2024-02-11T21:53:38.683Z,6.28
2024-02-11T21:56:06.731Z,6.43
2024-02-11T21:58:33.578Z,6.35
2024-02-11T22:01:00.936Z,5.90
2024-02-11T22:03:29.180Z,6.32
2024-02-11T22:05:56.291Z,6.05
2024-02-11T22:08:23.245Z,5.18
2024-02-11T22:10:49.958Z,5.70
2024-02-11T22:13:16.511Z,5.68
2024-02-11T22:15:44.022Z,6.35
2024-02-11T22:18:11.561Z,6.28
2024-02-11T22:20:39.500Z,6.63
2024-02-11T22:23:07.984Z,6.82
2024-02-11T22:25:34.715Z,6.97
2024-02-11T22:28:01.341Z,8.20
2024-02-11T22:30:28.033Z,8.60
2024-02-11T22:32:55.057Z,8.50
2024-02-11T22:35:22.462Z,10.05
2024-02-11T22:37:50.805Z,10.50
2024-02-11T22:40:17.888Z,11.32
2024-02-11T22:42:47.064Z,12.23
2024-02-11T22:45:14.472Z,12.50
2024-02-11T22:47:41.430Z,13.15
2024-02-11T22:50:10.008Z,12.77
2024-02-11T22:52:37.994Z,13.68
2024-02-11T22:55:05.245Z,13.43
2024-02-11T22:57:31.932Z,13.82
2024-02-11T22:59:59.141Z,13.63
2024-02-11T23:02:27.632Z,13.77
2024-02-11T23:04:54.544Z,15.38
2024-02-11T23:07:21.395Z,14.60
2024-02-11T23:09:49.945Z,15.05
2024-02-11T23:12:16.776Z,15.32
2024-02-11T23:14:45.660Z,15.77
2024-02-11T23:17:12.382Z,15.32
2024-02-11T23:19:41.060Z,16.10
2024-02-11T23:22:10.479Z,16.13
2024-02-11T23:24:37.093Z,17.10
2024-02-11T23:27:07.186Z,15.93
2024-02-11T23:29:36.941Z,16.75
2024-02-11T23:32:05.412Z,16.85
2024-02-11T23:34:33.281Z,15.85
2024-02-11T23:37:02.265Z,16.85
2024-02-11T23:39:29.472Z,17.75
2024-02-11T23:41:56.167Z,16.58
2024-02-11T23:44:23.236Z,16.80
2024-02-11T23:46:50.884Z,16.13
2024-02-11T23:49:22.004Z,15.82
2024-02-11T23:51:49.402Z,16.17
2024-02-11T23:54:17.496Z,15.13
2024-02-11T23:56:46.099Z,16.00
2024-02-11T23:59:13.172Z,17.05
